Tatalina Lrrs Airport
PATL : now visible

Airfield :











YOU CAN JOIN US ON...

 
LOGIN :

Register | Disclaimer

   EN    FR    IT 

 









Legend :    VFR   Marginal VFR   IFR   Intensive IFR   Very Intensive IFR
Visi :
Ceiling :
>= 8 km
>= 3000ft
5 to 8 km
1000 to 3000 ft
1500m to 5 km
500 to 1000 ft
800 to 1500m
200 to 500 ft
< 800m
< 200 ft
Symbols :   Thunderstorms  Fog  Heavy snow  Heavy precipitations  Wind > 20 kt






- Airport Elevation : 964 ft
- IATA code : TLJ


PATL - Tatalina Lrrs

CURRENT METAR :
  • 302355Z AUTO 04003KT 10SM -SN OVC006 M11/M12 A2994 RMK AO2 SNB2255 SLP168 P0000 60000 T11121119 11092 21122 57007

EXPIRED METARs :
  • 302255Z AUTO VRB04KT 6SM -SN OVC006 M11/M12 A2995 RMK AO2 SNB2055 SLP169 P0000 T11101118
  • 302243Z AUTO 04002KT 2SM -SN OVC006 M11/M12 A2995 RMK AO2 SLP171
  • 302213Z AUTO 03002KT 1 1/2SM -SN OVC005 M11/M12 A2995 RMK AO2 SLP171
  • 302158Z AUTO VRB01KT 2 1/2SM -SN OVC005 M11/M12 A2995 RMK AO2 SLP172

Expired Forecast.
PAZA FIR / North America



MET'MAP, your aeronautical weather chart ! - Copyright ORBIFLY December 2007 - Disclaimer

ORBIFLY MET'MAP TEAM :

Programming & Development : Alexandra Zaïnal
Concept & original design : Baudouin d'Aumeries
Assistance for programming : Marc-Olivier Méhu
Technical & hardware support : Manuel Goepfert

Contact : metmap@orbifly.com




SOURCES & CREDITS :

   NOAA       Earth
Advisory